Currently 81°F in Riverside (Canyon Crest), California, USA
81°F
81°F / 54°F
8 mph W
0.00"
Saturday, May 2, 2026 1:57 PM PDT

Riverside (Canyon Crest), California Weather Summary
Last 36 Hours

Temperature Winds Hourly Humidity Dewpoint
Time Report Norm Report Norm Max Gusts Precip. Rpt. Norm Rpt. Norm Pressure
1,2Sat 01:57 PM  80.6°F  76°F  8 mph W  5 mph  12 mph  0.00"  42%  48%  55°F  54°F  29.94"
Sat 01:00 PM  77.3°F  74°F  6 mph W  4 mph  10 mph  0.00"  52%  50%  58°F  54°F  29.97"
Sat 12:00 PM  72.9°F  72°F  2 mph S  4 mph  10 mph  0.00"  60%  54%  58°F  54°F  29.99"
Sat 11:00 AM  68.1°F  69°F  7 mph W  3 mph  10 mph  0.00"  73%  60%  59°F  54°F  30.02"
Sat 10:00 AM  61.8°F  66°F  5 mph W  3 mph  7 mph  0.00"  87%  66%  58°F  54°F  30.03"
Sat 09:00 AM  58.4°F  63°F  calm  2 mph  6 mph  0.00"  96%  74%  57°F  54°F  30.04"
Sat 08:00 AM  57.5°F  60°F  calm  2 mph  5 mph  0.00"  97%  79%  56°F  53°F  30.04"
Sat 07:00 AM  56.8°F  57°F  2 mph W  2 mph  5 mph  0.00"  96%  83%  56°F  52°F  30.04"
3Sat 06:05 AM  53.5°F  57°F  calm  2 mph  1 mph  ----  96%  83%  52°F  51°F  30.01"
Sat 06:00 AM  53.8°F  57°F  calm  2 mph  2 mph  0.00"  96%  83%  53°F  51°F  30.01"
Sat 05:00 AM  54.2°F  57°F  calm  2 mph  3 mph  0.00"  95%  83%  53°F  52°F  29.98"
Sat 04:00 AM  55.2°F  57°F  1 mph E  2 mph  2 mph  0.00"  94%  83%  54°F  52°F  29.98"
Sat 03:00 AM  56.0°F  58°F  calm  1 mph  3 mph  0.00"  94%  82%  54°F  52°F  29.97"
Sat 02:00 AM  56.6°F  59°F  calm  1 mph  4 mph  0.00"  92%  81%  54°F  53°F  29.98"
Sat 01:00 AM  57.9°F  59°F  calm  2 mph  3 mph  0.00"  86%  80%  54°F  53°F  30.00"
Sat 12:00 AM  59.3°F  60°F  calm  1 mph  2 mph  0.00"  83%  78%  54°F  53°F  30.00"
Fri 11:00 PM  61.7°F  62°F  calm  1 mph  2 mph  0.00"  77%  76%  54°F  54°F  30.00"
Fri 10:00 PM  64.2°F  63°F  calm  1 mph  5 mph  0.00"  73%  72%  55°F  54°F  29.99"
Fri 09:00 PM  66.1°F  65°F  calm  1 mph  7 mph  0.00"  70%  68%  55°F  54°F  29.98"
Fri 08:00 PM  69.0°F  67°F  4 mph W  2 mph  11 mph  0.00"  62%  63%  55°F  54°F  29.95"
Fri 07:00 PM  73.6°F  70°F  6 mph W  4 mph  13 mph  0.00"  54%  58%  55°F  54°F  29.92"
Fri 06:00 PM  78.0°F  73°F  9 mph W  6 mph  14 mph  0.00"  45%  53%  54°F  55°F  29.91"
Fri 05:00 PM  81.3°F  75°F  9 mph W  6 mph  14 mph  0.00"  39%  50%  53°F  55°F  29.91"
Fri 04:00 PM  82.5°F  76°F  8 mph W  6 mph  13 mph  0.00"  39%  48%  55°F  54°F  29.91"
Fri 03:00 PM  78.5°F  76°F  9 mph W  6 mph  13 mph  0.00"  47%  47%  56°F  54°F  29.95"
Fri 02:00 PM  75.6°F  76°F  4 mph NW  5 mph  11 mph  0.00"  52%  48%  56°F  54°F  29.97"
Fri 01:00 PM  71.5°F  74°F  6 mph W  4 mph  11 mph  0.00"  60%  50%  56°F  54°F  29.99"
Fri 12:00 PM  66.5°F  71°F  5 mph W  4 mph  12 mph  0.00"  70%  55%  56°F  54°F  30.02"
Fri 11:00 AM  65.8°F  69°F  6 mph W  3 mph  10 mph  0.00"  74%  60%  57°F  54°F  30.04"
Fri 10:00 AM  62.6°F  66°F  4 mph W  3 mph  8 mph  0.00"  77%  66%  55°F  54°F  30.05"
Fri 09:00 AM  60.4°F  63°F  2 mph SW  2 mph  6 mph  0.00"  84%  74%  55°F  54°F  30.05"
Fri 08:00 AM  58.6°F  60°F  2 mph W  2 mph  4 mph  0.00"  89%  80%  55°F  53°F  30.04"
Fri 07:00 AM  57.8°F  57°F  3 mph W  1 mph  4 mph  0.00"  92%  83%  55°F  52°F  30.03"
Fri 06:00 AM  57.5°F  56°F  2 mph SW  2 mph  3 mph  0.00"  93%  84%  55°F  51°F  30.00"
Fri 05:00 AM  56.1°F  57°F  calm  2 mph  2 mph  0.00"  95%  83%  55°F  52°F  30.00"
Fri 04:00 AM  53.9°F  57°F  calm  2 mph  2 mph  0.00"  95%  83%  53°F  52°F  29.99"
Fri 03:00 AM  54.9°F  58°F  calm  1 mph  3 mph  0.00"  91%  82%  52°F  52°F  29.99"
Fri 02:00 AM  55.7°F  58°F  calm  2 mph  3 mph  0.00"  90%  81%  53°F  52°F  29.99"

  1. Current weather data. No green row appears if the current weather data is also the high or low for the current day.
  2. High temperature for the current day.
  3. Low temperature for the current day.

The Riverside (Canyon Crest), California weather pages are a service of WeatherCurrents.
Copyright ©Sat May 02 13:58:10 PDT 2026  WeatherCurrents. All rights reserved. - Submit questions and comments - Privacy Policy

This page automatically refreshes every 10 minutes.